Time;durP1;ratioP1;P1;durP2;ratioP2;P2;SDS_P1;SDS_P2;PMS_P1;PMS_P2;Temp;Humidity;BMP_temperature;BMP_pressure;BME280_temperature;BME280_humidity;BME280_pressure;Samples;Min_cycle;Max_cycle;Signal;HPM_P1;HPM_P2
2021/03/02 00:00:05;;;;;;;18.33;7.78;;;5.70;88.20;;;;;;5005274;28;20120;-69
2021/03/02 00:02:32;;;;;;;16.05;8.35;;;5.70;88.20;;;;;;5001417;28;20133;-68
2021/03/02 00:04:58;;;;;;;13.38;6.55;;;5.70;88.10;;;;;;5002686;28;20051;-68
2021/03/02 00:07:27;;;;;;;14.43;7.47;;;5.70;88.30;;;;;;5005458;28;20085;-69
2021/03/02 00:09:54;;;;;;;17.25;7.28;;;5.70;88.20;;;;;;5006311;28;20078;-68
2021/03/02 00:12:26;;;;;;;14.98;7.13;;;5.70;88.10;;;;;;5005408;28;20050;-68
2021/03/02 00:14:53;;;;;;;14.38;6.53;;;5.60;88.10;;;;;;5005794;28;20046;-68
2021/03/02 00:17:29;;;;;;;15.70;7.85;;;5.60;88.10;;;;;;5005836;28;20113;-68
2021/03/02 00:20:15;;;;;;;17.38;6.85;;;5.60;88.10;;;;;;5020324;28;20141;-68
2021/03/02 00:22:54;;;;;;;13.38;6.53;;;5.60;88.00;;;;;;5006762;28;20050;-68
2021/03/02 00:25:25;;;;;;;15.18;7.20;;;5.60;87.90;;;;;;5000567;28;20054;-68
2021/03/02 00:27:53;;;;;;;13.90;6.70;;;5.50;87.80;;;;;;5002734;28;20053;-68
2021/03/02 00:30:20;;;;;;;14.05;6.70;;;5.50;87.80;;;;;;5004054;28;20050;-68
2021/03/02 00:32:47;;;;;;;16.15;7.07;;;5.50;87.70;;;;;;5004176;28;20696;-68
2021/03/02 00:35:15;;;;;;;14.43;6.45;;;5.50;87.70;;;;;;5003832;28;20052;-68
2021/03/02 00:37:44;;;;;;;14.68;6.90;;;5.40;87.90;;;;;;5005928;28;20049;-68
2021/03/02 00:40:11;;;;;;;15.65;6.75;;;5.40;87.80;;;;;;5010282;28;20054;-68
2021/03/02 00:42:49;;;;;;;15.00;7.05;;;5.40;87.80;;;;;;5004788;28;20057;-68
2021/03/02 00:45:16;;;;;;;14.18;6.88;;;5.30;87.80;;;;;;5005748;28;20099;-68
2021/03/02 00:47:42;;;;;;;14.93;6.63;;;5.30;87.90;;;;;;5005042;28;20497;-68
2021/03/02 00:50:10;;;;;;;15.75;6.43;;;5.30;88.00;;;;;;5005868;28;20042;-68
2021/03/02 00:52:36;;;;;;;16.05;6.88;;;5.20;87.80;;;;;;5006537;28;20508;-68
2021/03/02 00:55:07;;;;;;;15.80;6.70;;;5.20;88.00;;;;;;5006174;28;20630;-69
2021/03/02 00:57:33;;;;;;;16.20;7.50;;;5.20;88.10;;;;;;4999218;28;20377;-68
2021/03/02 01:00:00;;;;;;;14.55;6.97;;;5.10;88.00;;;;;;5005874;28;20053;-68
2021/03/02 01:02:27;;;;;;;16.55;6.88;;;5.10;88.10;;;;;;5004288;28;20764;-68
2021/03/02 01:04:54;;;;;;;14.35;6.68;;;5.10;88.20;;;;;;5005479;28;20046;-68
2021/03/02 01:07:20;;;;;;;14.93;6.78;;;5.00;88.20;;;;;;4999855;28;20058;-68
2021/03/02 01:09:46;;;;;;;15.57;6.50;;;5.00;88.30;;;;;;5003880;28;20092;-68
2021/03/02 01:12:12;;;;;;;13.43;6.35;;;5.00;88.10;;;;;;4999288;28;20108;-68
2021/03/02 01:14:39;;;;;;;14.52;6.90;;;5.00;88.20;;;;;;5004922;28;20049;-68
2021/03/02 01:17:06;;;;;;;14.85;6.35;;;5.00;88.20;;;;;;5003055;28;20050;-68
2021/03/02 01:19:32;;;;;;;12.88;6.57;;;4.90;88.20;;;;;;5004750;28;21566;-68
2021/03/02 01:21:59;;;;;;;15.20;6.88;;;4.90;88.20;;;;;;4999788;28;20454;-68
2021/03/02 01:24:25;;;;;;;13.20;7.38;;;4.90;88.00;;;;;;5005821;28;20574;-68
2021/03/02 01:26:51;;;;;;;13.68;7.55;;;4.90;88.00;;;;;;4999773;28;20042;-68
2021/03/02 01:29:18;;;;;;;20.98;9.18;;;4.90;88.20;;;;;;5004658;28;20071;-68
2021/03/02 01:31:45;;;;;;;15.85;8.05;;;4.90;88.10;;;;;;5004763;28;20099;-68
2021/03/02 01:34:12;;;;;;;13.38;6.72;;;4.90;88.00;;;;;;5005037;28;20053;-68
2021/03/02 01:36:38;;;;;;;14.20;7.47;;;4.90;88.70;;;;;;5003597;28;20497;-68
2021/03/02 01:39:05;;;;;;;12.52;5.82;;;4.90;88.10;;;;;;4998067;28;20053;-68
2021/03/02 01:41:31;;;;;;;15.77;6.57;;;4.80;87.80;;;;;;5002064;28;20053;-68
2021/03/02 01:43:57;;;;;;;14.88;6.65;;;4.80;87.70;;;;;;4998838;28;20058;-68
2021/03/02 01:46:23;;;;;;;14.38;5.72;;;4.80;87.70;;;;;;5003667;28;20137;-68
2021/03/02 01:48:51;;;;;;;12.98;6.00;;;4.70;87.70;;;;;;5002467;28;20046;-68
2021/03/02 01:51:17;;;;;;;11.13;5.57;;;4.70;87.70;;;;;;4998826;28;20049;-68
2021/03/02 01:53:43;;;;;;;10.85;5.35;;;4.60;87.50;;;;;;5003094;28;20538;-68
2021/03/02 01:56:10;;;;;;;12.60;5.50;;;4.60;87.50;;;;;;5002152;28;20178;-68
2021/03/02 01:58:36;;;;;;;12.68;6.95;;;4.50;87.40;;;;;;5005093;28;20046;-68
2021/03/02 02:01:07;;;;;;;10.75;6.88;;;4.40;87.30;;;;;;5003236;28;20452;-68
2021/03/02 02:03:45;;;;;;;15.80;8.95;;;4.40;87.20;;;;;;5000061;28;20397;-68
2021/03/02 02:06:24;;;;;;;13.60;7.10;;;4.30;87.10;;;;;;5008152;28;20076;-68
2021/03/02 02:08:59;;;;;;;;;;;4.30;87.20;;;;;;5003405;28;20045;-68
2021/03/02 02:11:41;;;;;;;12.43;6.78;;;4.30;88.20;;;;;;5002875;28;20015;-68
2021/03/02 02:14:13;;;;;;;9.88;5.97;;;4.20;87.30;;;;;;5013722;28;20136;-68
2021/03/02 02:16:42;;;;;;;10.48;6.65;;;4.20;87.00;;;;;;5003577;28;20390;-68
2021/03/02 02:19:32;;;;;;;10.45;6.90;;;4.20;86.90;;;;;;5005550;28;20058;-68
2021/03/02 02:22:16;;;;;;;9.95;5.50;;;4.10;86.80;;;;;;5002872;28;20483;-68
2021/03/02 02:25:02;;;;;;;10.10;5.40;;;4.10;86.90;;;;;;5005180;28;20046;-68
2021/03/02 02:27:31;;;;;;;10.05;5.68;;;4.00;86.90;;;;;;5102371;27;20116;-68
2021/03/02 02:30:00;;;;;;;11.57;6.05;;;4.00;87.10;;;;;;5005229;28;20129;-68
2021/03/02 02:32:28;;;;;;;12.30;5.93;;;4.00;87.00;;;;;;5000007;28;20045;-68
2021/03/02 02:34:57;;;;;;;13.88;6.75;;;4.00;86.90;;;;;;4992802;28;20555;-68
2021/03/02 02:37:26;;;;;;;12.38;5.78;;;4.00;86.70;;;;;;5004530;28;20058;-68
2021/03/02 02:39:53;;;;;;;;;;;3.90;86.50;;;;;;5002452;28;20060;-68
2021/03/02 02:42:20;;;;;;;10.95;6.15;;;3.90;87.50;;;;;;5001489;28;19921;-68
2021/03/02 02:44:49;;;;;;;12.13;5.75;;;3.80;86.90;;;;;;5091962;27;20073;-68
2021/03/02 02:47:16;;;;;;;12.85;6.57;;;3.80;86.90;;;;;;5003594;28;20051;-68
2021/03/02 02:49:47;;;;;;;14.20;7.15;;;3.80;86.90;;;;;;5001743;28;20054;-68
2021/03/02 02:52:16;;;;;;;13.02;7.38;;;3.80;86.90;;;;;;5004263;28;20046;-68
2021/03/02 02:54:44;;;;;;;10.98;6.70;;;3.80;87.20;;;;;;5002936;28;20129;-68
2021/03/02 02:57:15;;;;;;;11.20;6.40;;;3.80;87.10;;;;;;5008563;28;20049;-68
2021/03/02 02:59:44;;;;;;;13.70;7.70;;;3.80;87.20;;;;;;5004269;28;20421;-68
2021/03/02 03:02:17;;;;;;;15.82;6.97;;;3.70;86.90;;;;;;5005746;28;20068;-68
2021/03/02 03:04:47;;;;;;;12.90;6.70;;;3.70;87.00;;;;;;5005970;28;20042;-68
2021/03/02 03:07:21;;;;;;;13.30;6.50;;;3.80;87.30;;;;;;5007629;28;20049;-68
2021/03/02 03:09:49;;;;;;;10.43;6.13;;;3.80;87.30;;;;;;5004250;28;20048;-68
2021/03/02 03:12:16;;;;;;;12.80;6.25;;;3.80;87.30;;;;;;5005428;28;20060;-68
2021/03/02 03:14:51;;;;;;;9.93;5.90;;;3.80;87.20;;;;;;5005738;28;20050;-68
2021/03/02 03:17:19;;;;;;;11.23;6.70;;;3.80;87.00;;;;;;5003861;28;20526;-68
2021/03/02 03:19:48;;;;;;;13.35;7.07;;;3.80;87.00;;;;;;5002673;28;20138;-68
2021/03/02 03:22:15;;;;;;;12.40;7.25;;;3.80;86.90;;;;;;5004397;28;20084;-68
2021/03/02 03:24:43;;;;;;;12.63;7.07;;;3.70;86.50;;;;;;5009029;28;20038;-68
2021/03/02 03:27:09;;;;;;;10.45;6.40;;;3.60;86.50;;;;;;5005150;28;20052;-68
2021/03/02 03:29:37;;;;;;;13.75;6.80;;;3.50;86.40;;;;;;5007902;28;20233;-68
2021/03/02 03:32:06;;;;;;;12.95;6.68;;;3.50;86.50;;;;;;5005414;28;20060;-68
2021/03/02 03:34:33;;;;;;;14.25;6.78;;;3.50;86.40;;;;;;5007942;28;20411;-68
2021/03/02 03:37:00;;;;;;;11.20;5.90;;;3.40;86.40;;;;;;5005484;28;20089;-68
2021/03/02 03:39:26;;;;;;;13.20;6.47;;;3.40;86.40;;;;;;5007372;28;20064;-68
2021/03/02 03:41:52;;;;;;;11.98;6.13;;;3.30;86.30;;;;;;5005307;28;20046;-68
2021/03/02 03:44:19;;;;;;;12.10;5.90;;;3.30;86.30;;;;;;5005020;28;20038;-68
2021/03/02 03:46:45;;;;;;;11.52;5.65;;;3.20;86.10;;;;;;5005705;28;20045;-68
2021/03/02 03:49:12;;;;;;;10.57;5.40;;;3.20;86.20;;;;;;5004801;28;20043;-68
2021/03/02 03:51:40;;;;;;;11.65;6.07;;;3.10;86.00;;;;;;5006420;28;20072;-68
2021/03/02 03:54:08;;;;;;;15.52;6.28;;;3.00;85.90;;;;;;5107642;27;20078;-68
2021/03/02 03:56:35;;;;;;;12.00;6.15;;;3.00;86.10;;;;;;5007647;28;20148;-68
2021/03/02 03:59:04;;;;;;;14.50;5.90;;;2.90;86.00;;;;;;5007368;28;20065;-68
2021/03/02 04:01:31;;;;;;;11.30;5.15;;;2.80;85.80;;;;;;5005846;28;20332;-68
2021/03/02 04:03:57;;;;;;;12.23;5.93;;;2.80;85.90;;;;;;5007234;28;20462;-68
2021/03/02 04:06:24;;;;;;;11.85;4.60;;;2.80;85.90;;;;;;5003256;28;20046;-68
2021/03/02 04:08:51;;;;;;;14.18;5.20;;;2.70;85.90;;;;;;5002921;28;20044;-68
2021/03/02 04:11:17;;;;;;;13.55;5.65;;;2.80;85.90;;;;;;5003754;28;20050;-68
2021/03/02 04:13:43;;;;;;;12.63;5.32;;;2.80;85.90;;;;;;5004627;28;20046;-68
2021/03/02 04:16:09;;;;;;;14.70;6.32;;;2.80;86.00;;;;;;5001620;28;20041;-68
2021/03/02 04:18:37;;;;;;;13.32;4.85;;;2.70;85.90;;;;;;5005214;28;20053;-68
2021/03/02 04:21:03;;;;;;;13.27;6.25;;;2.70;85.90;;;;;;5006611;28;20054;-68
2021/03/02 04:23:29;;;;;;;12.52;6.10;;;2.70;85.90;;;;;;5005501;28;20505;-68
2021/03/02 04:25:56;;;;;;;12.85;6.43;;;2.60;85.90;;;;;;5004916;28;20695;-68
2021/03/02 04:28:22;;;;;;;12.90;5.55;;;2.60;85.90;;;;;;5006128;28;20046;-68
2021/03/02 04:30:48;;;;;;;13.25;5.55;;;2.60;85.80;;;;;;5004739;28;20094;-69
2021/03/02 04:33:15;;;;;;;12.75;5.68;;;2.60;86.00;;;;;;5004452;28;20043;-68
2021/03/02 04:35:41;;;;;;;11.50;5.75;;;2.60;86.10;;;;;;5005836;28;20075;-68
2021/03/02 04:38:09;;;;;;;10.98;5.38;;;2.60;86.10;;;;;;5000557;28;20046;-68
2021/03/02 04:40:35;;;;;;;9.45;4.57;;;2.70;86.20;;;;;;5000350;28;20144;-68
2021/03/02 04:43:02;;;;;;;12.73;5.90;;;2.70;86.00;;;;;;5005735;28;20050;-68
2021/03/02 04:45:47;;;;;;;10.20;4.82;;;2.70;85.90;;;;;;4999302;28;20065;-68
2021/03/02 04:48:14;;;;;;;13.50;5.60;;;2.70;85.70;;;;;;5003308;28;20052;-68
2021/03/02 04:50:40;;;;;;;14.07;5.18;;;2.70;85.70;;;;;;5002787;28;20044;-68
2021/03/02 04:53:07;;;;;;;13.70;5.68;;;2.60;85.40;;;;;;5004114;28;20053;-68
2021/03/02 04:55:34;;;;;;;13.65;6.15;;;2.50;85.30;;;;;;5001549;28;20052;-68
2021/03/02 04:58:00;;;;;;;12.32;6.20;;;2.50;85.30;;;;;;5001269;28;20091;-68
2021/03/02 05:00:26;;;;;;;13.68;5.85;;;2.40;85.40;;;;;;5002121;28;20050;-68
2021/03/02 05:02:52;;;;;;;10.48;5.10;;;2.30;85.40;;;;;;4996681;28;21326;-68
2021/03/02 05:05:19;;;;;;;13.38;5.85;;;2.30;85.50;;;;;;4998451;28;20448;-68
2021/03/02 05:07:45;;;;;;;11.45;5.72;;;2.20;85.50;;;;;;4998286;28;20046;-68
2021/03/02 05:10:12;;;;;;;14.15;6.07;;;2.20;85.50;;;;;;5003039;28;20518;-68
2021/03/02 05:12:38;;;;;;;11.80;5.30;;;2.20;85.60;;;;;;4994241;28;20046;-68
2021/03/02 05:15:05;;;;;;;12.50;5.80;;;2.20;85.60;;;;;;4999686;28;20053;-68
2021/03/02 05:17:31;;;;;;;11.60;5.35;;;2.20;85.60;;;;;;4997359;28;20074;-68
2021/03/02 05:19:58;;;;;;;12.30;5.20;;;2.20;85.60;;;;;;4994992;28;20053;-68
2021/03/02 05:22:24;;;;;;;12.45;5.43;;;2.20;85.50;;;;;;4995521;28;20050;-68
2021/03/02 05:24:51;;;;;;;14.00;5.53;;;2.20;85.50;;;;;;5001362;28;20511;-68
2021/03/02 05:27:18;;;;;;;11.68;5.18;;;2.20;85.30;;;;;;5000487;28;20054;-68
2021/03/02 05:29:45;;;;;;;9.95;4.65;;;2.10;85.30;;;;;;5000996;28;20050;-68
2021/03/02 05:32:11;;;;;;;12.23;5.47;;;2.10;85.40;;;;;;4994428;28;20077;-68
2021/03/02 05:34:37;;;;;;;13.52;5.18;;;2.10;85.30;;;;;;5000615;28;20557;-68
2021/03/02 05:37:04;;;;;;;11.75;5.15;;;2.00;85.40;;;;;;5006655;28;20051;-68
2021/03/02 05:39:30;;;;;;;11.18;5.05;;;2.00;85.30;;;;;;5004440;28;20173;-68
2021/03/02 05:41:57;;;;;;;13.38;5.78;;;2.00;85.40;;;;;;5000723;28;21769;-68
2021/03/02 05:44:24;;;;;;;11.38;5.45;;;1.90;85.40;;;;;;5002953;28;20060;-68
2021/03/02 05:46:51;;;;;;;11.77;5.00;;;1.90;85.40;;;;;;5002755;28;20133;-68
2021/03/02 05:49:18;;;;;;;10.02;4.97;;;1.90;85.30;;;;;;5003460;28;20492;-68
2021/03/02 05:51:44;;;;;;;12.73;6.18;;;1.90;85.30;;;;;;5004765;28;20042;-68
2021/03/02 05:54:11;;;;;;;12.23;5.30;;;1.80;85.10;;;;;;5005020;28;20092;-68
2021/03/02 05:56:40;;;;;;;16.52;5.70;;;1.80;85.20;;;;;;5003490;28;20050;-68
2021/03/02 05:59:07;;;;;;;10.32;4.68;;;1.80;85.30;;;;;;5002163;28;20242;-68
2021/03/02 06:01:34;;;;;;;13.27;5.35;;;1.80;85.20;;;;;;5003203;28;20057;-68
2021/03/02 06:04:01;;;;;;;12.80;5.38;;;1.70;85.20;;;;;;4999958;28;20050;-68
2021/03/02 06:06:28;;;;;;;12.32;4.97;;;1.70;85.20;;;;;;5013356;28;20046;-68
2021/03/02 06:08:54;;;;;;;10.80;5.32;;;1.70;85.20;;;;;;5005017;28;20418;-68
2021/03/02 06:11:36;;;;;;;13.52;5.68;;;1.70;85.40;;;;;;5004022;28;20053;-68
2021/03/02 06:14:22;;;;;;;13.90;5.22;;;1.70;85.30;;;;;;5105876;27;20069;-68
2021/03/02 06:16:55;;;;;;;14.05;6.05;;;1.70;85.30;;;;;;5009597;28;20050;-68
2021/03/02 06:19:37;;;;;;;10.70;5.80;;;1.70;85.20;;;;;;5093448;27;20068;-68
2021/03/02 06:22:04;;;;;;;12.23;5.68;;;1.70;85.40;;;;;;5091453;27;20204;-68
2021/03/02 06:24:41;;;;;;;12.20;5.20;;;1.70;85.40;;;;;;5005551;28;20191;-68
2021/03/02 06:27:09;;;;;;;10.55;4.32;;;1.70;85.30;;;;;;5008996;28;20408;-68
2021/03/02 06:29:36;;;;;;;12.15;5.70;;;1.70;85.40;;;;;;5007871;28;20136;-68
2021/03/02 06:32:02;;;;;;;10.77;5.40;;;1.70;85.30;;;;;;5004828;28;20443;-68
2021/03/02 06:34:29;;;;;;;11.55;5.47;;;1.70;85.20;;;;;;5105696;27;20042;-68
2021/03/02 06:36:56;;;;;;;11.25;5.10;;;1.70;85.30;;;;;;5004472;28;20423;-68
2021/03/02 06:39:28;;;;;;;9.32;5.30;;;1.70;85.40;;;;;;5005557;28;20073;-68
2021/03/02 06:42:12;;;;;;;11.27;5.22;;;1.70;85.40;;;;;;5004636;28;20041;-68
2021/03/02 06:44:40;;;;;;;11.63;5.18;;;1.70;85.50;;;;;;5005868;28;20128;-68
2021/03/02 06:47:39;;;;;;;9.77;4.93;;;1.70;85.70;;;;;;5005429;28;20046;-68
2021/03/02 06:50:13;;;;;;;12.23;4.95;;;1.70;85.70;;;;;;5000797;28;20096;-68
2021/03/02 06:52:41;;;;;;;9.95;4.70;;;1.80;86.00;;;;;;5005855;28;20481;-68
2021/03/02 06:55:16;;;;;;;12.23;6.00;;;1.80;86.10;;;;;;5004406;28;20077;-68
2021/03/02 06:57:43;;;;;;;12.10;5.47;;;1.80;85.90;;;;;;5006888;28;20057;-68
2021/03/02 07:00:10;;;;;;;15.30;5.43;;;1.90;86.10;;;;;;5005718;28;20053;-68
2021/03/02 07:02:41;;;;;;;12.80;4.88;;;1.90;86.20;;;;;;5103473;27;20050;-68
2021/03/02 07:05:17;;;;;;;10.32;4.65;;;1.90;86.50;;;;;;5004637;28;20137;-68
2021/03/02 07:07:49;;;;;;;11.95;5.05;;;2.00;86.80;;;;;;5005137;28;20041;-68
2021/03/02 07:10:16;;;;;;;11.90;5.40;;;2.10;87.10;;;;;;5102801;27;20041;-68
2021/03/02 07:12:45;;;;;;;10.73;4.90;;;2.10;87.10;;;;;;5098569;27;20046;-68
2021/03/02 07:15:18;;;;;;;9.00;4.50;;;2.20;87.50;;;;;;4999380;28;20056;-68
2021/03/02 07:17:49;;;;;;;9.57;4.95;;;2.30;87.60;;;;;;5001652;28;20048;-68
2021/03/02 07:20:17;;;;;;;11.85;5.10;;;2.40;87.80;;;;;;4998050;28;20056;-68
2021/03/02 07:22:48;;;;;;;12.90;5.35;;;2.40;87.90;;;;;;5000814;28;20072;-68
2021/03/02 07:25:19;;;;;;;12.52;4.90;;;2.50;88.20;;;;;;5000081;28;20051;-67
2021/03/02 07:27:48;;;;;;;11.40;5.13;;;2.60;88.60;;;;;;5001090;28;20125;-68
2021/03/02 07:30:15;;;;;;;11.48;5.45;;;2.70;88.60;;;;;;4996844;28;20050;-68
2021/03/02 07:32:46;;;;;;;11.07;4.90;;;2.80;88.90;;;;;;4999438;28;20115;-68
2021/03/02 07:35:19;;;;;;;11.98;4.60;;;3.00;89.20;;;;;;4999569;28;20080;-68
2021/03/02 07:37:46;;;;;;;12.07;5.32;;;3.10;89.50;;;;;;5000873;28;20501;-68
2021/03/02 07:40:15;;;;;;;12.43;5.68;;;3.20;89.80;;;;;;4998362;28;20058;-68
2021/03/02 07:42:42;;;;;;;10.88;5.50;;;3.40;90.00;;;;;;5000078;28;20046;-68
2021/03/02 07:45:19;;;;;;;10.13;4.75;;;3.50;90.20;;;;;;5002395;28;20115;-68
2021/03/02 07:47:58;;;;;;;10.90;5.15;;;3.70;90.30;;;;;;5088505;27;20070;-68
2021/03/02 07:50:30;;;;;;;13.52;5.45;;;3.90;90.40;;;;;;4997990;28;20088;-67
2021/03/02 07:53:22;;;;;;;9.48;4.90;;;4.00;90.40;;;;;;5001810;28;20057;-67
2021/03/02 07:56:23;;;;;;;10.52;5.07;;;4.20;90.60;;;;;;5002484;28;20095;-67
2021/03/02 07:59:04;;;;;;;11.68;4.93;;;4.30;90.80;;;;;;5003472;28;20058;-67
2021/03/02 08:01:32;;;;;;;10.73;4.72;;;4.50;91.00;;;;;;5001949;28;20056;-67
2021/03/02 08:04:13;;;;;;;11.57;4.75;;;4.70;91.10;;;;;;5001659;28;20065;-67
2021/03/02 08:06:48;;;;;;;10.57;5.07;;;4.90;91.10;;;;;;5000471;28;22043;-67
2021/03/02 08:09:28;;;;;;;12.15;5.47;;;5.00;91.20;;;;;;4999868;28;20349;-67
2021/03/02 08:11:55;;;;;;;11.43;5.28;;;5.20;91.20;;;;;;4999874;28;20125;-67
2021/03/02 08:14:22;;;;;;;13.18;5.20;;;5.30;91.40;;;;;;4999876;28;20056;-68
2021/03/02 08:17:01;;;;;;;12.55;5.35;;;5.50;91.40;;;;;;5000160;28;20041;-67
2021/03/02 08:19:37;;;;;;;11.10;5.53;;;5.60;91.40;;;;;;5003877;28;20045;-67
2021/03/02 08:22:16;;;;;;;11.55;5.50;;;5.80;91.50;;;;;;4998127;28;20065;-67
2021/03/02 08:24:59;;;;;;;10.27;4.65;;;6.00;91.70;;;;;;4996706;28;20060;-67
2021/03/02 08:27:44;;;;;;;13.32;5.85;;;6.10;91.70;;;;;;4997036;28;20049;-67
2021/03/02 08:30:16;;;;;;;11.13;5.38;;;6.30;91.90;;;;;;5003547;28;20462;-67
2021/03/02 08:32:43;;;;;;;13.52;5.90;;;6.40;91.90;;;;;;5002962;28;20046;-67
2021/03/02 08:35:19;;;;;;;12.32;5.70;;;6.60;92.00;;;;;;4998792;28;20058;-67
2021/03/02 08:37:48;;;;;;;13.90;6.05;;;6.80;92.10;;;;;;5001495;28;22099;-67
2021/03/02 08:40:17;;;;;;;11.32;6.03;;;6.90;92.20;;;;;;5091725;27;20049;-66
2021/03/02 08:43:02;;;;;;;;;;;7.10;92.30;;;;;;5096011;27;20075;-67
2021/03/02 08:45:30;;;;;;;11.13;5.88;;;7.20;93.20;;;;;;4994923;28;19929;-67
2021/03/02 08:48:26;;;;;;;11.53;5.90;;;7.30;92.60;;;;;;5001580;28;20135;-67
2021/03/02 08:50:54;;;;;;;12.25;6.22;;;7.50;92.50;;;;;;5004902;28;20335;-68
2021/03/02 08:53:25;;;;;;;13.88;6.65;;;7.60;92.70;;;;;;5003531;28;20058;-67
2021/03/02 08:55:51;;;;;;;13.05;6.88;;;7.70;92.60;;;;;;5095801;27;20076;-68
2021/03/02 08:58:41;;;;;;;14.85;7.18;;;7.90;92.80;;;;;;4996735;28;20148;-67
2021/03/02 09:01:15;;;;;;;14.30;6.57;;;8.00;92.90;;;;;;4994600;28;20172;-67
2021/03/02 09:03:44;;;;;;;12.88;5.38;;;8.10;92.80;;;;;;4992668;28;20140;-67
2021/03/02 09:06:17;;;;;;;12.90;6.53;;;8.20;92.80;;;;;;4996809;28;20084;-67
2021/03/02 09:09:04;;;;;;;13.50;6.45;;;8.40;93.00;;;;;;4995393;28;20054;-67
2021/03/02 09:11:42;;;;;;;13.70;6.30;;;8.50;93.00;;;;;;4995239;28;20119;-68
2021/03/02 09:14:19;;;;;;;15.43;6.95;;;8.60;93.10;;;;;;4998324;28;20050;-67
2021/03/02 09:16:47;;;;;;;13.48;6.30;;;8.70;93.10;;;;;;4994222;28;20247;-67
2021/03/02 09:19:23;;;;;;;12.70;6.18;;;8.80;93.20;;;;;;4997660;28;20098;-67
2021/03/02 09:22:00;;;;;;;13.02;6.30;;;9.00;93.30;;;;;;4993595;28;20054;-67
2021/03/02 09:24:44;;;;;;;10.88;6.07;;;9.00;93.30;;;;;;4994550;28;20101;-68
2021/03/02 09:27:19;;;;;;;11.15;5.55;;;9.20;93.40;;;;;;4993625;28;20045;-67
2021/03/02 09:29:51;;;;;;;15.23;6.85;;;9.40;93.50;;;;;;4995228;28;20053;-67
2021/03/02 09:32:27;;;;;;;13.02;7.03;;;9.50;93.50;;;;;;4993143;28;20050;-67
2021/03/02 09:35:00;;;;;;;12.10;6.78;;;9.60;93.60;;;;;;4995734;28;20050;-67
2021/03/02 09:37:27;;;;;;;10.55;5.90;;;9.70;93.60;;;;;;5094615;27;20108;-67
2021/03/02 09:39:58;;;;;;;11.40;5.53;;;9.80;93.60;;;;;;4995726;28;20062;-68
2021/03/02 09:42:27;;;;;;;10.65;5.90;;;9.90;93.60;;;;;;4999787;28;20396;-67
2021/03/02 09:44:55;;;;;;;13.77;5.35;;;10.10;93.30;;;;;;5000044;28;20388;-67
2021/03/02 09:47:33;;;;;;;10.98;4.85;;;10.20;93.40;;;;;;4994818;28;20042;-67
2021/03/02 09:50:00;;;;;;;11.52;5.72;;;10.40;93.30;;;;;;4990951;28;20049;-67
2021/03/02 09:52:32;;;;;;;12.75;5.82;;;10.60;93.30;;;;;;4994686;28;20050;-67
2021/03/02 09:55:21;;;;;;;11.43;5.40;;;10.80;93.50;;;;;;5089203;27;20111;-68
2021/03/02 09:57:51;;;;;;;11.45;6.38;;;11.10;93.80;;;;;;5000335;28;20149;-68
2021/03/02 10:00:23;;;;;;;14.05;5.93;;;11.30;93.60;;;;;;4997579;28;20049;-67
2021/03/02 10:02:57;;;;;;;13.60;6.30;;;11.50;93.60;;;;;;4999527;28;20080;-68
2021/03/02 10:05:30;;;;;;;11.02;5.75;;;11.70;94.60;;;;;;4995496;28;20049;-68
2021/03/02 10:07:57;;;;;;;16.77;7.32;;;11.90;94.40;;;;;;4996313;28;20053;-68
2021/03/02 10:10:37;;;;;;;12.80;7.00;;;12.10;94.70;;;;;;4992653;28;20076;-68
2021/03/02 10:13:05;;;;;;;11.18;6.70;;;12.20;96.10;;;;;;4991834;28;20042;-67
2021/03/02 10:15:34;;;;;;;11.45;6.57;;;12.50;97.40;;;;;;4997542;28;20045;-67
2021/03/02 10:18:03;;;;;;;13.90;7.05;;;12.70;98.20;;;;;;4995293;28;20049;-68
2021/03/02 10:20:30;;;;;;;11.02;6.35;;;12.90;98.70;;;;;;4995827;28;20469;-67
2021/03/02 10:23:06;;;;;;;11.45;6.55;;;13.10;99.60;;;;;;4996291;28;20057;-68
2021/03/02 10:25:41;;;;;;;11.82;6.43;;;13.30;99.90;;;;;;4995693;28;23079;-67
2021/03/02 10:28:08;;;;;;;11.13;6.72;;;13.50;99.90;;;;;;4995362;28;20049;-68
2021/03/02 10:30:34;;;;;;;14.13;7.32;;;13.50;99.90;;;;;;4998479;28;20076;-68
2021/03/02 10:33:01;;;;;;;13.25;7.28;;;13.50;98.50;;;;;;4996623;28;20053;-68
2021/03/02 10:35:27;;;;;;;15.13;7.68;;;13.50;98.80;;;;;;5001015;28;20215;-68
2021/03/02 10:37:54;;;;;;;14.57;8.65;;;13.60;99.20;;;;;;5000613;28;20131;-68
2021/03/02 10:40:20;;;;;;;14.48;8.20;;;13.70;98.50;;;;;;4992337;28;20042;-68
2021/03/02 10:42:46;;;;;;;13.57;7.30;;;14.00;99.90;;;;;;4997720;28;20058;-68
2021/03/02 10:45:13;;;;;;;13.65;7.15;;;14.30;99.90;;;;;;4996237;28;20050;-69
2021/03/02 10:47:40;;;;;;;12.88;7.18;;;14.70;99.90;;;;;;4999611;28;20172;-69
2021/03/02 10:50:11;;;;;;;13.63;7.20;;;14.90;99.90;;;;;;4996687;28;20061;-69
2021/03/02 10:52:37;;;;;;;12.43;6.88;;;15.00;99.90;;;;;;4994720;28;20532;-68
2021/03/02 10:55:04;;;;;;;13.48;7.43;;;15.10;99.90;;;;;;4993454;28;20050;-70
2021/03/02 10:57:30;;;;;;;13.63;7.53;;;15.40;99.90;;;;;;4994332;28;20140;-69
2021/03/02 10:59:56;;;;;;;12.57;7.40;;;15.50;99.90;;;;;;4994106;28;20060;-68
2021/03/02 11:02:22;;;;;;;12.70;7.38;;;15.80;99.90;;;;;;4994996;28;20448;-68
2021/03/02 11:04:49;;;;;;;13.52;7.80;;;16.00;99.90;;;;;;4994833;28;20045;-68
2021/03/02 11:07:15;;;;;;;11.73;6.97;;;16.30;99.90;;;;;;4998392;28;20148;-68
2021/03/02 11:09:41;;;;;;;12.30;7.38;;;16.40;99.90;;;;;;4993286;28;20051;-69
2021/03/02 11:12:08;;;;;;;15.82;7.05;;;16.40;99.90;;;;;;5001042;28;20125;-68
2021/03/02 11:14:34;;;;;;;13.07;7.35;;;16.70;99.90;;;;;;4999917;28;20042;-68
2021/03/02 11:17:01;;;;;;;13.93;7.22;;;16.80;99.90;;;;;;5003964;28;20066;-68
2021/03/02 11:19:27;;;;;;;12.23;7.28;;;17.00;99.90;;;;;;4996029;28;20070;-69
2021/03/02 11:21:54;;;;;;;12.50;7.13;;;17.30;99.90;;;;;;4992087;28;20046;-68
2021/03/02 11:24:20;;;;;;;11.20;6.80;;;17.40;99.90;;;;;;4997163;28;20503;-68
2021/03/02 11:26:46;;;;;;;11.90;7.32;;;17.60;99.90;;;;;;5104604;27;20046;-69
2021/03/02 11:29:12;;;;;;;12.80;7.22;;;17.70;99.90;;;;;;4996347;28;20153;-68
2021/03/02 11:31:38;;;;;;;11.55;6.95;;;17.60;97.40;;;;;;5101912;27;20794;-69
2021/03/02 11:34:05;;;;;;;14.30;6.95;;;17.50;97.20;;;;;;4990561;28;20092;-69
2021/03/02 11:36:31;;;;;;;10.63;6.68;;;17.50;97.80;;;;;;4994445;28;20056;-68
2021/03/02 11:38:58;;;;;;;14.73;7.38;;;17.60;97.60;;;;;;4995989;28;20578;-68
2021/03/02 11:41:24;;;;;;;12.05;7.10;;;17.80;98.40;;;;;;4996055;28;20068;-68
2021/03/02 11:43:50;;;;;;;11.57;7.00;;;17.90;98.70;;;;;;4995369;28;20042;-69
2021/03/02 11:46:17;;;;;;;13.07;6.57;;;18.20;99.60;;;;;;5096976;27;20046;-69
2021/03/02 11:48:43;;;;;;;14.00;7.13;;;18.30;98.30;;;;;;4999334;28;20057;-69
2021/03/02 11:51:10;;;;;;;11.82;7.07;;;18.50;99.00;;;;;;4996058;28;20133;-68
2021/03/02 11:53:36;;;;;;;11.02;6.97;;;18.70;99.20;;;;;;4995343;28;20124;-68
2021/03/02 11:56:03;;;;;;;10.43;6.53;;;19.00;99.70;;;;;;4994677;28;20100;-69
2021/03/02 11:58:29;;;;;;;10.57;6.47;;;19.30;98.70;;;;;;4994400;28;20052;-68
2021/03/02 12:00:56;;;;;;;11.07;6.60;;;19.50;99.40;;;;;;4994010;28;21198;-68
2021/03/02 12:03:24;;;;;;;8.63;6.18;;;19.70;99.50;;;;;;4997891;28;20050;-68
2021/03/02 12:05:51;;;;;;;9.88;6.38;;;19.90;99.90;;;;;;5092001;27;20088;-68
2021/03/02 12:08:19;;;;;;;11.07;6.68;;;20.20;99.90;;;;;;4994308;28;20054;-67
2021/03/02 12:10:46;;;;;;;10.70;6.33;;;20.70;99.90;;;;;;4996235;28;20040;-68
2021/03/02 12:13:13;;;;;;;10.67;6.57;;;21.00;99.90;;;;;;5000363;28;20081;-68
2021/03/02 12:15:41;;;;;;;11.43;6.82;;;21.30;99.90;;;;;;4998733;28;20153;-68
2021/03/02 12:18:08;;;;;;;9.15;6.07;;;21.60;99.90;;;;;;5009054;28;20053;-68
2021/03/02 12:20:35;;;;;;;10.87;5.67;;;21.70;99.90;;;;;;4997887;28;20049;-68
2021/03/02 12:23:01;;;;;;;10.63;6.32;;;21.90;99.90;;;;;;5003388;28;20054;-68
2021/03/02 12:25:27;;;;;;;8.77;5.65;;;22.10;99.90;;;;;;5001249;28;20745;-68
2021/03/02 12:27:53;;;;;;;10.07;6.35;;;22.20;99.90;;;;;;4998266;28;20064;-68
2021/03/02 12:30:20;;;;;;;11.07;6.65;;;22.20;99.30;;;;;;4995634;28;20524;-68
2021/03/02 12:32:46;;;;;;;9.40;6.15;;;22.20;99.00;;;;;;5000964;28;20053;-68
2021/03/02 12:35:13;;;;;;;10.05;6.22;;;22.30;99.10;;;;;;5002327;28;20069;-68
2021/03/02 12:37:39;;;;;;;10.80;6.05;;;22.30;99.20;;;;;;4999125;28;20429;-68
2021/03/02 12:40:06;;;;;;;12.07;7.03;;;22.40;99.40;;;;;;4999030;28;20049;-68
2021/03/02 12:42:36;;;;;;;11.77;6.45;;;22.50;97.80;;;;;;4999073;28;20066;-68
2021/03/02 12:45:03;;;;;;;10.52;6.65;;;22.40;97.80;;;;;;5000340;28;20397;-68
2021/03/02 12:47:29;;;;;;;10.10;6.47;;;22.10;96.60;;;;;;5000351;28;20053;-68
2021/03/02 12:49:56;;;;;;;11.70;6.57;;;21.80;95.80;;;;;;5004378;28;20659;-68
2021/03/02 12:52:22;;;;;;;12.00;7.47;;;21.40;94.60;;;;;;4999103;28;20045;-68
2021/03/02 12:54:49;;;;;;;12.63;7.60;;;21.00;93.70;;;;;;5001746;28;20060;-68
2021/03/02 12:57:15;;;;;;;13.20;6.70;;;20.60;92.20;;;;;;5001732;28;20049;-68